JST984 YBAS-YPPH
Flight info
| Callsign | JST984 |
|---|---|
| Flight time | 2h 57m |
| Altitude | 38000 |
| Route | AS W408 AYE Q41 MALUP Q158 PH |
| Aircraft | A20N/M-SDE2E3FGHIRWXY/LB1 |
Departure
| Time | 2026-04-17 02:26 |
|---|---|
| Airport | Alice Springs Airport (YBAS) |
Arrival
| Time | 2026-04-17 05:23 |
|---|---|
| Airport | Perth International Airport (YPPH) |
| Time | Latitude | Longitude | Altitude | Speed | Heading |
|---|---|---|---|---|---|
| 2026-04-17 01:54 | -23.80306 | 133.90184 | 1787 ft | 0 kts | 62° |
| 2026-04-17 02:16 | -23.80307 | 133.90183 | 1787 ft | 2 kts | 62° |
| 2026-04-17 02:17 | -23.80319 | 133.90172 | 1785 ft | 2 kts | 8° |
| 2026-04-17 02:17 | -23.80336 | 133.90173 | 1787 ft | 2 kts | 344° |
| 2026-04-17 02:17 | -23.80351 | 133.90179 | 1785 ft | 2 kts | 330° |
| 2026-04-17 02:17 | -23.80365 | 133.90189 | 1786 ft | 2 kts | 318° |
| 2026-04-17 02:18 | -23.80372 | 133.90197 | 1785 ft | 1 kts | 307° |
| 2026-04-17 02:21 | -23.80367 | 133.90189 | 1786 ft | 2 kts | 305° |
| 2026-04-17 02:21 | -23.80366 | 133.90187 | 1786 ft | 0 kts | 305° |
| 2026-04-17 02:21 | -23.80363 | 133.90182 | 1786 ft | 6 kts | 302° |
| 2026-04-17 02:22 | -23.80341 | 133.90099 | 1788 ft | 14 kts | 248° |
| 2026-04-17 02:22 | -23.80374 | 133.90063 | 1788 ft | 0 kts | 216° |
| 2026-04-17 02:23 | -23.80392 | 133.90051 | 1787 ft | 15 kts | 210° |
| 2026-04-17 02:23 | -23.80434 | 133.89955 | 1789 ft | 17 kts | 295° |
| 2026-04-17 02:23 | -23.80360 | 133.89818 | 1788 ft | 28 kts | 301° |
| 2026-04-17 02:24 | -23.80242 | 133.89600 | 1790 ft | 37 kts | 300° |
| 2026-04-17 02:24 | -23.80163 | 133.89407 | 1791 ft | 22 kts | 273° |
| 2026-04-17 02:24 | -23.80131 | 133.89336 | 1791 ft | 3 kts | 15° |
| 2026-04-17 02:24 | -23.80117 | 133.89360 | 1793 ft | 5 kts | 85° |
| 2026-04-17 02:25 | -23.80145 | 133.89418 | 1791 ft | 14 kts | 118° |
| 2026-04-17 02:25 | -23.80294 | 133.89700 | 1789 ft | 78 kts | 120° |
| 2026-04-17 02:25 | -23.80676 | 133.90405 | 1783 ft | 135 kts | 120° |
| 2026-04-17 02:25 | -23.81226 | 133.91401 | 2036 ft | 159 kts | 119° |
| 2026-04-17 02:26 | -23.81800 | 133.92454 | 2704 ft | 162 kts | 118° |
| 2026-04-17 02:26 | -23.82378 | 133.93512 | 3357 ft | 162 kts | 118° |
| 2026-04-17 02:26 | -23.82974 | 133.94591 | 3872 ft | 174 kts | 121° |
| 2026-04-17 02:26 | -23.83710 | 133.95747 | 4212 ft | 198 kts | 135° |
| 2026-04-17 02:27 | -23.84958 | 133.96537 | 4584 ft | 219 kts | 168° |
| 2026-04-17 02:27 | -23.86480 | 133.96428 | 5245 ft | 226 kts | 201° |
| 2026-04-17 02:27 | -23.87777 | 133.95391 | 5808 ft | 241 kts | 232° |
| 2026-04-17 02:27 | -23.88672 | 133.93758 | 6281 ft | 261 kts | 244° |
| 2026-04-17 02:28 | -23.89407 | 133.91888 | 6891 ft | 272 kts | 248° |
| 2026-04-17 02:28 | -23.90099 | 133.89955 | 7775 ft | 274 kts | 248° |
| 2026-04-17 02:28 | -23.90813 | 133.88032 | 8518 ft | 279 kts | 248° |
| 2026-04-17 02:28 | -23.91596 | 133.86035 | 9301 ft | 285 kts | 247° |
| 2026-04-17 02:29 | -23.92395 | 133.84062 | 10064 ft | 290 kts | 247° |
| 2026-04-17 02:29 | -23.93237 | 133.82015 | 10603 ft | 303 kts | 247° |
| 2026-04-17 02:29 | -23.94136 | 133.79838 | 10853 ft | 326 kts | 246° |
| 2026-04-17 02:29 | -23.95094 | 133.77523 | 11229 ft | 340 kts | 246° |
| 2026-04-17 02:30 | -23.96074 | 133.75159 | 11963 ft | 342 kts | 246° |
| 2026-04-17 02:30 | -23.97059 | 133.72781 | 12712 ft | 345 kts | 247° |
| 2026-04-17 02:30 | -23.97879 | 133.70310 | 13451 ft | 347 kts | 255° |
| 2026-04-17 02:30 | -23.98375 | 133.67725 | 14167 ft | 348 kts | 263° |
| 2026-04-17 02:31 | -23.98581 | 133.65088 | 14886 ft | 348 kts | 266° |
| 2026-04-17 02:31 | -23.98756 | 133.62454 | 15622 ft | 347 kts | 266° |
| 2026-04-17 02:31 | -23.98941 | 133.59814 | 16294 ft | 348 kts | 267° |
| 2026-04-17 02:31 | -23.99149 | 133.57173 | 16972 ft | 350 kts | 264° |
| 2026-04-17 02:32 | -23.99686 | 133.54569 | 17615 ft | 354 kts | 255° |
| 2026-04-17 02:32 | -24.00660 | 133.52083 | 18296 ft | 358 kts | 245° |
| 2026-04-17 02:32 | -24.01999 | 133.49752 | 18808 ft | 364 kts | 241° |
| 2026-04-17 02:32 | -24.03395 | 133.47427 | 19301 ft | 367 kts | 242° |
| 2026-04-17 02:33 | -24.04794 | 133.45081 | 19787 ft | 370 kts | 242° |
| 2026-04-17 02:33 | -24.06200 | 133.42712 | 20263 ft | 373 kts | 242° |
| 2026-04-17 02:33 | -24.07615 | 133.40326 | 20759 ft | 375 kts | 242° |
| 2026-04-17 02:33 | -24.09020 | 133.37955 | 21240 ft | 377 kts | 242° |
| 2026-04-17 02:34 | -24.10453 | 133.35535 | 21718 ft | 380 kts | 242° |
| 2026-04-17 02:34 | -24.11899 | 133.33093 | 22166 ft | 383 kts | 242° |
| 2026-04-17 02:34 | -24.13354 | 133.30636 | 22634 ft | 386 kts | 242° |
| 2026-04-17 02:34 | -24.14820 | 133.28158 | 23085 ft | 389 kts | 242° |
| 2026-04-17 02:35 | -24.16295 | 133.25664 | 23543 ft | 392 kts | 242° |
| 2026-04-17 02:35 | -24.17781 | 133.23151 | 23943 ft | 394 kts | 242° |
| 2026-04-17 02:35 | -24.20768 | 133.18096 | 24743 ft | 397 kts | 242° |
| 2026-04-17 02:36 | -24.22269 | 133.15553 | 25134 ft | 398 kts | 242° |
| 2026-04-17 02:36 | -24.23771 | 133.13005 | 25518 ft | 399 kts | 242° |
| 2026-04-17 02:36 | -24.25282 | 133.10443 | 25907 ft | 400 kts | 242° |
| 2026-04-17 02:36 | -24.26778 | 133.07903 | 26256 ft | 402 kts | 242° |
| 2026-04-17 02:37 | -24.28297 | 133.05324 | 26626 ft | 404 kts | 242° |
| 2026-04-17 02:37 | -24.29821 | 133.02734 | 26984 ft | 405 kts | 242° |
| 2026-04-17 02:37 | -24.31353 | 133.00131 | 27319 ft | 407 kts | 242° |
| 2026-04-17 02:37 | -24.32890 | 132.97517 | 27658 ft | 408 kts | 242° |
| 2026-04-17 02:38 | -24.34435 | 132.94887 | 27992 ft | 410 kts | 242° |
| 2026-04-17 02:38 | -24.35981 | 132.92254 | 28303 ft | 412 kts | 243° |
| 2026-04-17 02:38 | -24.37535 | 132.89608 | 28618 ft | 413 kts | 243° |
| 2026-04-17 02:38 | -24.39093 | 132.86953 | 28918 ft | 414 kts | 243° |
| 2026-04-17 02:39 | -24.40658 | 132.84283 | 29214 ft | 416 kts | 243° |
| 2026-04-17 02:39 | -24.42224 | 132.81611 | 29498 ft | 417 kts | 243° |
| 2026-04-17 02:39 | -24.43799 | 132.78923 | 29793 ft | 419 kts | 243° |
| 2026-04-17 02:39 | -24.45357 | 132.76262 | 30087 ft | 420 kts | 243° |
| 2026-04-17 02:40 | -24.46942 | 132.73554 | 30331 ft | 422 kts | 243° |
| 2026-04-17 02:40 | -24.48530 | 132.70838 | 30562 ft | 423 kts | 243° |
| 2026-04-17 02:40 | -24.50123 | 132.68113 | 30811 ft | 425 kts | 243° |
| 2026-04-17 02:40 | -24.51727 | 132.65368 | 31050 ft | 426 kts | 243° |
| 2026-04-17 02:41 | -24.53330 | 132.62623 | 31314 ft | 427 kts | 243° |
| 2026-04-17 02:41 | -24.54932 | 132.59879 | 31628 ft | 427 kts | 243° |
| 2026-04-17 02:41 | -24.56532 | 132.57138 | 31954 ft | 426 kts | 243° |
| 2026-04-17 02:41 | -24.58128 | 132.54402 | 32274 ft | 425 kts | 243° |
| 2026-04-17 02:42 | -24.59717 | 132.51664 | 32583 ft | 423 kts | 245° |
| 2026-04-17 02:42 | -24.61130 | 132.48849 | 32884 ft | 418 kts | 250° |
| 2026-04-17 02:42 | -24.62288 | 132.45932 | 33160 ft | 415 kts | 253° |
| 2026-04-17 02:42 | -24.63380 | 132.42998 | 33442 ft | 415 kts | 253° |
| 2026-04-17 02:43 | -24.64484 | 132.40068 | 33726 ft | 414 kts | 253° |
| 2026-04-17 02:43 | -24.65572 | 132.37188 | 33997 ft | 413 kts | 253° |
| 2026-04-17 02:43 | -24.66675 | 132.34263 | 34247 ft | 413 kts | 253° |
| 2026-04-17 02:43 | -24.67770 | 132.31356 | 34495 ft | 411 kts | 253° |
| 2026-04-17 02:44 | -24.68863 | 132.28451 | 34731 ft | 410 kts | 253° |
| 2026-04-17 02:44 | -24.69953 | 132.25558 | 34970 ft | 409 kts | 253° |
| 2026-04-17 02:44 | -24.71037 | 132.22673 | 35211 ft | 408 kts | 253° |
| 2026-04-17 02:44 | -24.72118 | 132.19793 | 35437 ft | 407 kts | 253° |
| 2026-04-17 02:45 | -24.73196 | 132.16917 | 35663 ft | 406 kts | 253° |
| 2026-04-17 02:45 | -24.74269 | 132.14049 | 35885 ft | 405 kts | 254° |
| 2026-04-17 02:45 | -24.75339 | 132.11180 | 36110 ft | 404 kts | 254° |
| 2026-04-17 02:45 | -24.76405 | 132.08321 | 36323 ft | 403 kts | 254° |
| 2026-04-17 02:46 | -24.77469 | 132.05467 | 36536 ft | 403 kts | 254° |
| 2026-04-17 02:46 | -24.78532 | 132.02617 | 36729 ft | 402 kts | 254° |
| 2026-04-17 02:46 | -24.79582 | 131.99799 | 36921 ft | 402 kts | 254° |
| 2026-04-17 02:46 | -24.80644 | 131.96951 | 37107 ft | 401 kts | 254° |
| 2026-04-17 02:47 | -24.81703 | 131.94110 | 37277 ft | 401 kts | 254° |
| 2026-04-17 02:47 | -24.82760 | 131.91270 | 37446 ft | 401 kts | 254° |
| 2026-04-17 02:47 | -24.83816 | 131.88434 | 37605 ft | 400 kts | 255° |
| 2026-04-17 02:47 | -24.84870 | 131.85598 | 37763 ft | 400 kts | 255° |
| 2026-04-17 02:48 | -24.85923 | 131.82765 | 37919 ft | 400 kts | 255° |
| 2026-04-17 02:48 | -24.86974 | 131.79936 | 38070 ft | 399 kts | 255° |
| 2026-04-17 02:48 | -24.89075 | 131.74271 | 38090 ft | 398 kts | 255° |
| 2026-04-17 02:49 | -24.91167 | 131.68625 | 38089 ft | 398 kts | 255° |
| 2026-04-17 02:49 | -24.93259 | 131.62969 | 38091 ft | 398 kts | 255° |
| 2026-04-17 02:50 | -24.95348 | 131.57314 | 38093 ft | 399 kts | 255° |
| 2026-04-17 02:50 | -24.97436 | 131.51655 | 38095 ft | 398 kts | 255° |
| 2026-04-17 02:51 | -24.99521 | 131.45998 | 38094 ft | 398 kts | 255° |
| 2026-04-17 02:51 | -25.01603 | 131.40340 | 38094 ft | 398 kts | 255° |
| 2026-04-17 02:52 | -25.03683 | 131.34680 | 38093 ft | 398 kts | 255° |
| 2026-04-17 02:52 | -25.05748 | 131.29052 | 38093 ft | 398 kts | 255° |
| 2026-04-17 02:53 | -25.07824 | 131.23385 | 38089 ft | 398 kts | 255° |
| 2026-04-17 02:53 | -25.09898 | 131.17718 | 38088 ft | 398 kts | 256° |
| 2026-04-17 02:54 | -25.11970 | 131.12051 | 38090 ft | 398 kts | 256° |
| 2026-04-17 02:54 | -25.14040 | 131.06377 | 38093 ft | 398 kts | 256° |
| 2026-04-17 02:55 | -25.16111 | 131.00743 | 38096 ft | 400 kts | 254° |
| 2026-04-17 02:55 | -25.18782 | 130.95273 | 38097 ft | 410 kts | 245° |
| 2026-04-17 02:56 | -25.22112 | 130.90118 | 38106 ft | 413 kts | 243° |
| 2026-04-17 02:56 | -25.25472 | 130.84977 | 38106 ft | 413 kts | 243° |
| 2026-04-17 02:57 | -25.28833 | 130.79830 | 38103 ft | 413 kts | 243° |
| 2026-04-17 02:57 | -25.32190 | 130.74687 | 38100 ft | 412 kts | 243° |
| 2026-04-17 02:58 | -25.35542 | 130.69548 | 38096 ft | 412 kts | 243° |
| 2026-04-17 02:58 | -25.38890 | 130.64408 | 38094 ft | 412 kts | 242° |
| 2026-04-17 02:59 | -25.42237 | 130.59271 | 38098 ft | 411 kts | 244° |
| 2026-04-17 02:59 | -25.45574 | 130.54132 | 38103 ft | 411 kts | 244° |
| 2026-04-17 03:00 | -25.48909 | 130.48994 | 38097 ft | 411 kts | 244° |
| 2026-04-17 03:00 | -25.52240 | 130.43857 | 38101 ft | 410 kts | 244° |
| 2026-04-17 03:01 | -25.55547 | 130.38752 | 38106 ft | 410 kts | 244° |
| 2026-04-17 03:01 | -25.58875 | 130.33609 | 38110 ft | 411 kts | 244° |
| 2026-04-17 03:02 | -25.60538 | 130.31037 | 38218 ft | 411 kts | 244° |
| 2026-04-17 03:02 | -25.62201 | 130.28464 | 38368 ft | 410 kts | 244° |
| 2026-04-17 03:02 | -25.63864 | 130.25890 | 38501 ft | 410 kts | 244° |
| 2026-04-17 03:02 | -25.65523 | 130.23320 | 38617 ft | 411 kts | 244° |
| 2026-04-17 03:03 | -25.67186 | 130.20742 | 38743 ft | 410 kts | 244° |
| 2026-04-17 03:03 | -25.68845 | 130.18170 | 38860 ft | 410 kts | 244° |
| 2026-04-17 03:03 | -25.70502 | 130.15600 | 38983 ft | 409 kts | 244° |
| 2026-04-17 03:03 | -25.72153 | 130.13038 | 39076 ft | 408 kts | 244° |
| 2026-04-17 03:04 | -25.75448 | 130.07919 | 39097 ft | 407 kts | 244° |
| 2026-04-17 03:04 | -25.78717 | 130.02832 | 39094 ft | 406 kts | 244° |
| 2026-04-17 03:05 | -25.81996 | 129.97726 | 39097 ft | 406 kts | 244° |
| 2026-04-17 03:05 | -25.85269 | 129.92623 | 39098 ft | 406 kts | 244° |
| 2026-04-17 03:06 | -25.88546 | 129.87516 | 39096 ft | 405 kts | 244° |
| 2026-04-17 03:06 | -25.91816 | 129.82403 | 39093 ft | 405 kts | 244° |
| 2026-04-17 03:07 | -25.95073 | 129.77307 | 39088 ft | 405 kts | 245° |
| 2026-04-17 03:07 | -25.98310 | 129.72238 | 39084 ft | 404 kts | 245° |
| 2026-04-17 03:08 | -26.01564 | 129.67136 | 39083 ft | 404 kts | 245° |
| 2026-04-17 03:08 | -26.04816 | 129.62035 | 39085 ft | 403 kts | 245° |
| 2026-04-17 03:09 | -26.07505 | 129.57808 | 39083 ft | 403 kts | 245° |
| 2026-04-17 03:09 | -26.10741 | 129.52718 | 39081 ft | 403 kts | 245° |
| 2026-04-17 03:10 | -26.13975 | 129.47627 | 39082 ft | 402 kts | 245° |
| 2026-04-17 03:10 | -26.17202 | 129.42542 | 39078 ft | 401 kts | 245° |
| 2026-04-17 03:11 | -26.20419 | 129.37467 | 39074 ft | 400 kts | 245° |
| 2026-04-17 03:11 | -26.23632 | 129.32395 | 39072 ft | 401 kts | 245° |
| 2026-04-17 03:12 | -26.26817 | 129.27360 | 39074 ft | 400 kts | 245° |
| 2026-04-17 03:12 | -26.30016 | 129.22294 | 39073 ft | 399 kts | 245° |
| 2026-04-17 03:13 | -26.33214 | 129.17224 | 39071 ft | 399 kts | 245° |
| 2026-04-17 03:13 | -26.36406 | 129.12162 | 39069 ft | 398 kts | 245° |
| 2026-04-17 03:14 | -26.39588 | 129.07112 | 39070 ft | 398 kts | 245° |
| 2026-04-17 03:14 | -26.42759 | 129.02066 | 39066 ft | 397 kts | 245° |
| 2026-04-17 03:15 | -26.45907 | 128.97053 | 39069 ft | 396 kts | 245° |
| 2026-04-17 03:15 | -26.49067 | 128.92018 | 39073 ft | 395 kts | 245° |
| 2026-04-17 03:16 | -26.52218 | 128.86992 | 39063 ft | 395 kts | 245° |
| 2026-04-17 03:16 | -26.55362 | 128.81970 | 39068 ft | 394 kts | 245° |
| 2026-04-17 03:17 | -26.58497 | 128.76957 | 39066 ft | 393 kts | 246° |
| 2026-04-17 03:17 | -26.61625 | 128.71950 | 39069 ft | 392 kts | 246° |
| 2026-04-17 03:18 | -26.64746 | 128.66950 | 39064 ft | 392 kts | 246° |
| 2026-04-17 03:18 | -26.67857 | 128.61959 | 39061 ft | 391 kts | 246° |
| 2026-04-17 03:19 | -26.70942 | 128.57003 | 39058 ft | 390 kts | 246° |
| 2026-04-17 03:19 | -26.74057 | 128.51995 | 39057 ft | 389 kts | 246° |
| 2026-04-17 03:20 | -26.77147 | 128.47023 | 39054 ft | 389 kts | 246° |
| 2026-04-17 03:20 | -26.80207 | 128.42092 | 39048 ft | 388 kts | 246° |
| 2026-04-17 03:21 | -26.83282 | 128.37131 | 39051 ft | 387 kts | 246° |
| 2026-04-17 03:21 | -26.86351 | 128.32174 | 39047 ft | 387 kts | 246° |
| 2026-04-17 03:22 | -26.89417 | 128.27217 | 39049 ft | 387 kts | 246° |
| 2026-04-17 03:22 | -26.92479 | 128.22261 | 39043 ft | 386 kts | 246° |
| 2026-04-17 03:23 | -26.95518 | 128.17337 | 39042 ft | 386 kts | 246° |
| 2026-04-17 03:23 | -26.98572 | 128.12382 | 39040 ft | 386 kts | 246° |
| 2026-04-17 03:24 | -27.01627 | 128.07422 | 39039 ft | 386 kts | 246° |
| 2026-04-17 03:24 | -27.04682 | 128.02455 | 39044 ft | 387 kts | 246° |
| 2026-04-17 03:25 | -27.07737 | 127.97482 | 39051 ft | 387 kts | 246° |
| 2026-04-17 03:25 | -27.10791 | 127.92507 | 39051 ft | 387 kts | 246° |
| 2026-04-17 03:26 | -27.13848 | 127.87521 | 39049 ft | 388 kts | 246° |
| 2026-04-17 03:26 | -27.16904 | 127.82531 | 39053 ft | 388 kts | 246° |
| 2026-04-17 03:27 | -27.19943 | 127.77564 | 39055 ft | 388 kts | 246° |
| 2026-04-17 03:27 | -27.22997 | 127.72564 | 39053 ft | 388 kts | 246° |
| 2026-04-17 03:28 | -27.26054 | 127.67556 | 39051 ft | 388 kts | 246° |
| 2026-04-17 03:28 | -27.29107 | 127.62548 | 39051 ft | 388 kts | 247° |
| 2026-04-17 03:29 | -27.32153 | 127.57548 | 39044 ft | 387 kts | 247° |
| 2026-04-17 03:29 | -27.35201 | 127.52537 | 39044 ft | 388 kts | 246° |
| 2026-04-17 03:30 | -27.38250 | 127.47523 | 39044 ft | 388 kts | 246° |
| 2026-04-17 03:30 | -27.41290 | 127.42516 | 39038 ft | 388 kts | 247° |
| 2026-04-17 03:31 | -27.44309 | 127.37529 | 39041 ft | 388 kts | 247° |
| 2026-04-17 03:31 | -27.47347 | 127.32508 | 39042 ft | 388 kts | 247° |
| 2026-04-17 03:32 | -27.50390 | 127.27478 | 39047 ft | 388 kts | 247° |
| 2026-04-17 03:32 | -27.53435 | 127.22440 | 39047 ft | 389 kts | 247° |
| 2026-04-17 03:33 | -27.56473 | 127.17404 | 39049 ft | 388 kts | 247° |
| 2026-04-17 03:33 | -27.59509 | 127.12360 | 39044 ft | 388 kts | 247° |
| 2026-04-17 03:34 | -27.62533 | 127.07338 | 39037 ft | 387 kts | 247° |
| 2026-04-17 03:34 | -27.65532 | 127.02348 | 39035 ft | 387 kts | 247° |
| 2026-04-17 03:35 | -27.68549 | 126.97328 | 39041 ft | 386 kts | 247° |
| 2026-04-17 03:35 | -27.71562 | 126.92304 | 39037 ft | 386 kts | 247° |
| 2026-04-17 03:36 | -27.76074 | 126.84771 | 39035 ft | 385 kts | 247° |
| 2026-04-17 03:37 | -27.79072 | 126.79760 | 39029 ft | 385 kts | 247° |
| 2026-04-17 03:37 | -27.82068 | 126.74745 | 39030 ft | 384 kts | 247° |
| 2026-04-17 03:38 | -27.85036 | 126.69770 | 39030 ft | 384 kts | 247° |
| 2026-04-17 03:38 | -27.88023 | 126.64758 | 39025 ft | 384 kts | 247° |
| 2026-04-17 03:39 | -27.91001 | 126.59756 | 39023 ft | 383 kts | 247° |
| 2026-04-17 03:39 | -27.93981 | 126.54745 | 39020 ft | 383 kts | 247° |
| 2026-04-17 03:40 | -27.96952 | 126.49741 | 39016 ft | 383 kts | 247° |
| 2026-04-17 03:40 | -27.99900 | 126.44772 | 39014 ft | 383 kts | 247° |
| 2026-04-17 03:41 | -28.02866 | 126.39765 | 39010 ft | 383 kts | 247° |
| 2026-04-17 03:41 | -28.05835 | 126.34750 | 39014 ft | 383 kts | 247° |
| 2026-04-17 03:42 | -28.08802 | 126.29731 | 39014 ft | 384 kts | 247° |
| 2026-04-17 03:42 | -28.11769 | 126.24704 | 39017 ft | 384 kts | 247° |
| 2026-04-17 03:43 | -28.14740 | 126.19667 | 39009 ft | 384 kts | 247° |
| 2026-04-17 03:43 | -28.17713 | 126.14619 | 39013 ft | 385 kts | 246° |
| 2026-04-17 03:44 | -28.20669 | 126.09595 | 39013 ft | 386 kts | 246° |
| 2026-04-17 03:44 | -28.23651 | 126.04520 | 39015 ft | 387 kts | 246° |
| 2026-04-17 03:45 | -28.26640 | 125.99429 | 39017 ft | 387 kts | 246° |
| 2026-04-17 03:45 | -28.29626 | 125.94336 | 39016 ft | 388 kts | 246° |
| 2026-04-17 03:46 | -28.32618 | 125.89228 | 39020 ft | 389 kts | 246° |
| 2026-04-17 03:46 | -28.35593 | 125.84141 | 39011 ft | 389 kts | 246° |
| 2026-04-17 03:47 | -28.38587 | 125.79016 | 39008 ft | 390 kts | 246° |
| 2026-04-17 03:47 | -28.41586 | 125.73878 | 39003 ft | 390 kts | 246° |
| 2026-04-17 03:48 | -28.44585 | 125.68731 | 39014 ft | 391 kts | 246° |
| 2026-04-17 03:48 | -28.47588 | 125.63573 | 39007 ft | 391 kts | 246° |
| 2026-04-17 03:49 | -28.50597 | 125.58397 | 39013 ft | 392 kts | 246° |
| 2026-04-17 03:49 | -28.53601 | 125.53224 | 39011 ft | 392 kts | 246° |
| 2026-04-17 03:50 | -28.56590 | 125.48071 | 39011 ft | 393 kts | 246° |
| 2026-04-17 03:50 | -28.59601 | 125.42874 | 39010 ft | 393 kts | 246° |
| 2026-04-17 03:51 | -28.62615 | 125.37663 | 39009 ft | 394 kts | 246° |
| 2026-04-17 03:51 | -28.65629 | 125.32449 | 39008 ft | 394 kts | 246° |
| 2026-04-17 03:52 | -28.68622 | 125.27263 | 39004 ft | 394 kts | 246° |
| 2026-04-17 03:52 | -28.71635 | 125.22035 | 39006 ft | 394 kts | 246° |
| 2026-04-17 03:53 | -28.74647 | 125.16804 | 39003 ft | 395 kts | 246° |
| 2026-04-17 03:53 | -28.77657 | 125.11570 | 39005 ft | 395 kts | 246° |
| 2026-04-17 03:54 | -28.80668 | 125.06327 | 39006 ft | 395 kts | 246° |
| 2026-04-17 03:54 | -28.83679 | 125.01077 | 39008 ft | 395 kts | 246° |
| 2026-04-17 03:55 | -28.86669 | 124.95858 | 39006 ft | 395 kts | 246° |
| 2026-04-17 03:55 | -28.89678 | 124.90597 | 39005 ft | 395 kts | 246° |
| 2026-04-17 03:56 | -28.92683 | 124.85339 | 39004 ft | 395 kts | 246° |
| 2026-04-17 03:56 | -28.95690 | 124.80069 | 39005 ft | 395 kts | 246° |
| 2026-04-17 03:57 | -28.98677 | 124.74832 | 39009 ft | 396 kts | 246° |
| 2026-04-17 03:57 | -29.01679 | 124.69564 | 39009 ft | 395 kts | 246° |
| 2026-04-17 03:58 | -29.04671 | 124.64287 | 39010 ft | 395 kts | 246° |
| 2026-04-17 03:58 | -29.07662 | 124.59015 | 39011 ft | 395 kts | 246° |
| 2026-04-17 03:59 | -29.10154 | 124.54622 | 39010 ft | 395 kts | 246° |
| 2026-04-17 03:59 | -29.13149 | 124.49338 | 39012 ft | 395 kts | 246° |
| 2026-04-17 04:00 | -29.16132 | 124.44067 | 39012 ft | 395 kts | 246° |
| 2026-04-17 04:00 | -29.19111 | 124.38794 | 39010 ft | 394 kts | 246° |
| 2026-04-17 04:01 | -29.22087 | 124.33520 | 39008 ft | 394 kts | 246° |
| 2026-04-17 04:01 | -29.25055 | 124.28253 | 39003 ft | 393 kts | 246° |
| 2026-04-17 04:02 | -29.28019 | 124.22986 | 39001 ft | 393 kts | 246° |
| 2026-04-17 04:02 | -29.30961 | 124.17752 | 38993 ft | 393 kts | 246° |
| 2026-04-17 04:03 | -29.33916 | 124.12488 | 38991 ft | 393 kts | 246° |
| 2026-04-17 04:03 | -29.36868 | 124.07222 | 38990 ft | 393 kts | 246° |
| 2026-04-17 04:04 | -29.39819 | 124.01951 | 38990 ft | 393 kts | 246° |
| 2026-04-17 04:04 | -29.42770 | 123.96673 | 38991 ft | 393 kts | 246° |
| 2026-04-17 04:05 | -29.45722 | 123.91387 | 38996 ft | 394 kts | 246° |
| 2026-04-17 04:05 | -29.48661 | 123.86117 | 38998 ft | 394 kts | 246° |
| 2026-04-17 04:06 | -29.51613 | 123.80819 | 38994 ft | 394 kts | 246° |
| 2026-04-17 04:06 | -29.54563 | 123.75516 | 38995 ft | 394 kts | 246° |
| 2026-04-17 04:07 | -29.57517 | 123.70200 | 38998 ft | 394 kts | 245° |
| 2026-04-17 04:07 | -29.60464 | 123.64890 | 39000 ft | 394 kts | 245° |
| 2026-04-17 04:08 | -29.63409 | 123.59575 | 38987 ft | 394 kts | 245° |
| 2026-04-17 04:08 | -29.66350 | 123.54260 | 38988 ft | 394 kts | 245° |
| 2026-04-17 04:09 | -29.69268 | 123.48981 | 38980 ft | 394 kts | 245° |
| 2026-04-17 04:09 | -29.72206 | 123.43658 | 38983 ft | 394 kts | 245° |
| 2026-04-17 04:10 | -29.75141 | 123.38333 | 38987 ft | 394 kts | 245° |
| 2026-04-17 04:10 | -29.78079 | 123.32997 | 38987 ft | 394 kts | 245° |
| 2026-04-17 04:11 | -29.80992 | 123.27698 | 38987 ft | 394 kts | 245° |
| 2026-04-17 04:11 | -29.83922 | 123.22363 | 38983 ft | 394 kts | 245° |
| 2026-04-17 04:12 | -29.86855 | 123.17014 | 38987 ft | 395 kts | 245° |
| 2026-04-17 04:12 | -29.89786 | 123.11662 | 38987 ft | 395 kts | 245° |
| 2026-04-17 04:13 | -29.92718 | 123.06302 | 38981 ft | 395 kts | 245° |
| 2026-04-17 04:13 | -29.95646 | 123.00942 | 38983 ft | 395 kts | 245° |
| 2026-04-17 04:14 | -29.98574 | 122.95573 | 38981 ft | 395 kts | 245° |
| 2026-04-17 04:14 | -30.01503 | 122.90197 | 38983 ft | 396 kts | 245° |
| 2026-04-17 04:15 | -30.04431 | 122.84814 | 38979 ft | 396 kts | 245° |
| 2026-04-17 04:15 | -30.07339 | 122.79461 | 38981 ft | 396 kts | 245° |
| 2026-04-17 04:16 | -30.10270 | 122.74058 | 38980 ft | 397 kts | 245° |
| 2026-04-17 04:16 | -30.13201 | 122.68650 | 38980 ft | 397 kts | 245° |
| 2026-04-17 04:17 | -30.16131 | 122.63235 | 38980 ft | 397 kts | 245° |
| 2026-04-17 04:17 | -30.19039 | 122.57856 | 38977 ft | 397 kts | 245° |
| 2026-04-17 04:18 | -30.21964 | 122.52435 | 38981 ft | 397 kts | 245° |
| 2026-04-17 04:18 | -30.24884 | 122.47015 | 38974 ft | 397 kts | 245° |
| 2026-04-17 04:19 | -30.27802 | 122.41592 | 38977 ft | 397 kts | 245° |
| 2026-04-17 04:19 | -30.30718 | 122.36167 | 38975 ft | 396 kts | 245° |
| 2026-04-17 04:20 | -30.33628 | 122.30746 | 38971 ft | 396 kts | 245° |
| 2026-04-17 04:20 | -30.36536 | 122.25320 | 38972 ft | 396 kts | 245° |
| 2026-04-17 04:21 | -30.39418 | 122.19936 | 38966 ft | 396 kts | 245° |
| 2026-04-17 04:21 | -30.42317 | 122.14511 | 38962 ft | 396 kts | 245° |
| 2026-04-17 04:22 | -30.45214 | 122.09085 | 38961 ft | 395 kts | 244° |
| 2026-04-17 04:22 | -30.48108 | 122.03656 | 38958 ft | 395 kts | 244° |
| 2026-04-17 04:23 | -30.50979 | 121.98263 | 38956 ft | 395 kts | 244° |
| 2026-04-17 04:23 | -30.53862 | 121.92839 | 38956 ft | 395 kts | 244° |
| 2026-04-17 04:24 | -30.56744 | 121.87411 | 38955 ft | 395 kts | 244° |
| 2026-04-17 04:24 | -30.59618 | 121.81989 | 38942 ft | 394 kts | 244° |
| 2026-04-17 04:25 | -30.62492 | 121.76561 | 38956 ft | 394 kts | 244° |
| 2026-04-17 04:25 | -30.65362 | 121.71131 | 38964 ft | 394 kts | 244° |
| 2026-04-17 04:26 | -30.68232 | 121.65695 | 38973 ft | 394 kts | 244° |
| 2026-04-17 04:26 | -30.71100 | 121.60255 | 38984 ft | 394 kts | 244° |
| 2026-04-17 04:27 | -30.73914 | 121.54914 | 38993 ft | 395 kts | 244° |
| 2026-04-17 04:27 | -30.76779 | 121.49467 | 38995 ft | 395 kts | 244° |
| 2026-04-17 04:28 | -30.79644 | 121.44018 | 38994 ft | 395 kts | 244° |
| 2026-04-17 04:28 | -30.82422 | 121.38740 | 38994 ft | 395 kts | 244° |
| 2026-04-17 04:29 | -30.85091 | 121.33169 | 38987 ft | 395 kts | 244° |
| 2026-04-17 04:29 | -30.88054 | 121.27804 | 38977 ft | 397 kts | 243° |
| 2026-04-17 04:30 | -30.91010 | 121.22379 | 38965 ft | 396 kts | 244° |
| 2026-04-17 04:30 | -30.93895 | 121.16912 | 38956 ft | 396 kts | 244° |
| 2026-04-17 04:31 | -30.96767 | 121.11424 | 38939 ft | 396 kts | 244° |
| 2026-04-17 04:31 | -30.99635 | 121.05936 | 38937 ft | 396 kts | 244° |
| 2026-04-17 04:32 | -31.02489 | 121.00470 | 38934 ft | 397 kts | 244° |
| 2026-04-17 04:32 | -31.05353 | 120.94974 | 38905 ft | 395 kts | 244° |
| 2026-04-17 04:33 | -31.08197 | 120.89514 | 38926 ft | 393 kts | 244° |
| 2026-04-17 04:33 | -31.11033 | 120.84057 | 38925 ft | 394 kts | 244° |
| 2026-04-17 04:34 | -31.15287 | 120.75862 | 38919 ft | 393 kts | 244° |
| 2026-04-17 04:34 | -31.18105 | 120.70423 | 38918 ft | 393 kts | 244° |
| 2026-04-17 04:35 | -31.20933 | 120.64956 | 38907 ft | 393 kts | 244° |
| 2026-04-17 04:35 | -31.23761 | 120.59483 | 38906 ft | 393 kts | 244° |
| 2026-04-17 04:36 | -31.26582 | 120.54014 | 38904 ft | 392 kts | 244° |
| 2026-04-17 04:36 | -31.29396 | 120.48553 | 38898 ft | 392 kts | 244° |
| 2026-04-17 04:37 | -31.31942 | 120.42947 | 38892 ft | 388 kts | 250° |
| 2026-04-17 04:37 | -31.34120 | 120.37176 | 38889 ft | 388 kts | 250° |
| 2026-04-17 04:38 | -31.36317 | 120.31413 | 38891 ft | 388 kts | 250° |
| 2026-04-17 04:38 | -31.38511 | 120.25644 | 38885 ft | 388 kts | 250° |
| 2026-04-17 04:39 | -31.40701 | 120.19865 | 38881 ft | 388 kts | 250° |
| 2026-04-17 04:39 | -31.42873 | 120.14114 | 38872 ft | 388 kts | 250° |
| 2026-04-17 04:40 | -31.45057 | 120.08321 | 38873 ft | 388 kts | 250° |
| 2026-04-17 04:40 | -31.47242 | 120.02519 | 38880 ft | 389 kts | 250° |
| 2026-04-17 04:41 | -31.49420 | 119.96729 | 38883 ft | 388 kts | 250° |
| 2026-04-17 04:41 | -31.51601 | 119.90922 | 38880 ft | 389 kts | 250° |
| 2026-04-17 04:42 | -31.53761 | 119.85159 | 38877 ft | 389 kts | 250° |
| 2026-04-17 04:42 | -31.55935 | 119.79351 | 38877 ft | 389 kts | 250° |
| 2026-04-17 04:43 | -31.58103 | 119.73548 | 38877 ft | 389 kts | 250° |
| 2026-04-17 04:43 | -31.60270 | 119.67738 | 38875 ft | 389 kts | 250° |
| 2026-04-17 04:44 | -31.62434 | 119.61923 | 38879 ft | 389 kts | 250° |
| 2026-04-17 04:44 | -31.64599 | 119.56100 | 38879 ft | 389 kts | 250° |
| 2026-04-17 04:45 | -31.66760 | 119.50276 | 38878 ft | 389 kts | 250° |
| 2026-04-17 04:45 | -31.68918 | 119.44452 | 38882 ft | 389 kts | 250° |
| 2026-04-17 04:46 | -31.71063 | 119.38654 | 38885 ft | 389 kts | 250° |
| 2026-04-17 04:46 | -31.73219 | 119.32813 | 38880 ft | 389 kts | 251° |
| 2026-04-17 04:47 | -31.75371 | 119.26971 | 38881 ft | 389 kts | 251° |
| 2026-04-17 04:47 | -31.77157 | 119.22116 | 38888 ft | 389 kts | 251° |
| 2026-04-17 04:48 | -31.79302 | 119.16277 | 38888 ft | 389 kts | 251° |
| 2026-04-17 04:48 | -31.81447 | 119.10429 | 38885 ft | 389 kts | 251° |
| 2026-04-17 04:49 | -31.83589 | 119.04580 | 38883 ft | 389 kts | 251° |
| 2026-04-17 04:49 | -31.85725 | 118.98738 | 38875 ft | 389 kts | 251° |
| 2026-04-17 04:50 | -31.87857 | 118.92895 | 38877 ft | 388 kts | 251° |
| 2026-04-17 04:50 | -31.89985 | 118.87053 | 38868 ft | 388 kts | 251° |
| 2026-04-17 04:51 | -31.92098 | 118.81245 | 38865 ft | 388 kts | 251° |
| 2026-04-17 04:51 | -31.94217 | 118.75407 | 38865 ft | 388 kts | 251° |
| 2026-04-17 04:52 | -31.96338 | 118.69553 | 38860 ft | 388 kts | 251° |
| 2026-04-17 04:52 | -31.98455 | 118.63704 | 38860 ft | 388 kts | 251° |
| 2026-04-17 04:53 | -32.00568 | 118.57850 | 38861 ft | 388 kts | 251° |
| 2026-04-17 04:55 | -32.09117 | 118.34463 | 38863 ft | 390 kts | 249° |
| 2026-04-17 04:55 | -32.11463 | 118.28700 | 38862 ft | 389 kts | 249° |
| 2026-04-17 04:56 | -32.13766 | 118.22964 | 38863 ft | 389 kts | 250° |
| 2026-04-17 04:56 | -32.16069 | 118.17176 | 38860 ft | 390 kts | 250° |
| 2026-04-17 04:57 | -32.18369 | 118.11378 | 38863 ft | 390 kts | 250° |
| 2026-04-17 04:57 | -32.20668 | 118.05568 | 38878 ft | 393 kts | 249° |
| 2026-04-17 04:58 | -32.22982 | 117.99710 | 38442 ft | 392 kts | 248° |
| 2026-04-17 04:58 | -32.24132 | 117.96802 | 37296 ft | 399 kts | 248° |
| 2026-04-17 04:58 | -32.25317 | 117.93792 | 35862 ft | 410 kts | 248° |
| 2026-04-17 04:59 | -32.26521 | 117.90735 | 34504 ft | 420 kts | 248° |
| 2026-04-17 04:59 | -32.27757 | 117.87600 | 33545 ft | 419 kts | 248° |
| 2026-04-17 04:59 | -32.28976 | 117.84514 | 32835 ft | 410 kts | 248° |
| 2026-04-17 04:59 | -32.30177 | 117.81463 | 32346 ft | 411 kts | 248° |
| 2026-04-17 05:00 | -32.31387 | 117.78382 | 31483 ft | 414 kts | 248° |
| 2026-04-17 05:00 | -32.32588 | 117.75323 | 30951 ft | 405 kts | 248° |
| 2026-04-17 05:00 | -32.33764 | 117.72330 | 30436 ft | 396 kts | 248° |
| 2026-04-17 05:00 | -32.34821 | 117.69355 | 29919 ft | 393 kts | 255° |
| 2026-04-17 05:01 | -32.35411 | 117.66139 | 29344 ft | 406 kts | 265° |
| 2026-04-17 05:01 | -32.35452 | 117.62795 | 28806 ft | 407 kts | 276° |
| 2026-04-17 05:01 | -32.34947 | 117.59572 | 28289 ft | 404 kts | 285° |
| 2026-04-17 05:01 | -32.34172 | 117.56390 | 27746 ft | 400 kts | 285° |
| 2026-04-17 05:02 | -32.33413 | 117.53239 | 27229 ft | 396 kts | 285° |
| 2026-04-17 05:02 | -32.32666 | 117.50130 | 26702 ft | 391 kts | 285° |
| 2026-04-17 05:02 | -32.31928 | 117.47056 | 26184 ft | 386 kts | 285° |
| 2026-04-17 05:02 | -32.31198 | 117.44018 | 25675 ft | 382 kts | 285° |
| 2026-04-17 05:03 | -32.30474 | 117.41016 | 25159 ft | 378 kts | 285° |
| 2026-04-17 05:03 | -32.29756 | 117.38036 | 24655 ft | 375 kts | 286° |
| 2026-04-17 05:03 | -32.29042 | 117.35083 | 24151 ft | 372 kts | 286° |
| 2026-04-17 05:03 | -32.28333 | 117.32151 | 23622 ft | 370 kts | 286° |
| 2026-04-17 05:04 | -32.27627 | 117.29239 | 23059 ft | 367 kts | 286° |
| 2026-04-17 05:04 | -32.26929 | 117.26359 | 22587 ft | 362 kts | 286° |
| 2026-04-17 05:04 | -32.26240 | 117.23520 | 22088 ft | 358 kts | 286° |
| 2026-04-17 05:04 | -32.25558 | 117.20711 | 21604 ft | 354 kts | 286° |
| 2026-04-17 05:05 | -32.24882 | 117.17928 | 21111 ft | 351 kts | 286° |
| 2026-04-17 05:05 | -32.24210 | 117.15167 | 20628 ft | 348 kts | 286° |
| 2026-04-17 05:05 | -32.23544 | 117.12433 | 20143 ft | 345 kts | 286° |
| 2026-04-17 05:05 | -32.22882 | 117.09721 | 19661 ft | 343 kts | 286° |
| 2026-04-17 05:06 | -32.22201 | 117.06931 | 19173 ft | 366 kts | 286° |
| 2026-04-17 05:06 | -32.21482 | 117.03992 | 18806 ft | 376 kts | 286° |
| 2026-04-17 05:06 | -32.20754 | 117.01015 | 18311 ft | 379 kts | 286° |
| 2026-04-17 05:06 | -32.20017 | 116.98006 | 17570 ft | 383 kts | 286° |
| 2026-04-17 05:07 | -32.19280 | 116.95002 | 16967 ft | 379 kts | 286° |
| 2026-04-17 05:07 | -32.18498 | 116.92064 | 16430 ft | 372 kts | 291° |
| 2026-04-17 05:07 | -32.17416 | 116.89361 | 15903 ft | 365 kts | 300° |
| 2026-04-17 05:07 | -32.16030 | 116.86923 | 15398 ft | 352 kts | 307° |
| 2026-04-17 05:08 | -32.14534 | 116.84701 | 14915 ft | 341 kts | 307° |
| 2026-04-17 05:08 | -32.13075 | 116.82503 | 14420 ft | 338 kts | 307° |
| 2026-04-17 05:08 | -32.11635 | 116.80321 | 13934 ft | 335 kts | 307° |
| 2026-04-17 05:08 | -32.10206 | 116.78160 | 13429 ft | 333 kts | 307° |
| 2026-04-17 05:09 | -32.08788 | 116.76020 | 12951 ft | 329 kts | 307° |
| 2026-04-17 05:09 | -32.07389 | 116.73911 | 12468 ft | 325 kts | 307° |
| 2026-04-17 05:09 | -32.06005 | 116.71826 | 12020 ft | 321 kts | 307° |
| 2026-04-17 05:09 | -32.04638 | 116.69769 | 11562 ft | 314 kts | 307° |
| 2026-04-17 05:10 | -32.03326 | 116.67796 | 11324 ft | 297 kts | 307° |
| 2026-04-17 05:10 | -32.02091 | 116.65940 | 11102 ft | 281 kts | 307° |
| 2026-04-17 05:10 | -32.00896 | 116.64143 | 10567 ft | 277 kts | 307° |
| 2026-04-17 05:10 | -31.99715 | 116.62368 | 10213 ft | 274 kts | 307° |
| 2026-04-17 05:11 | -31.98520 | 116.60572 | 9977 ft | 280 kts | 307° |
| 2026-04-17 05:11 | -31.97318 | 116.58768 | 9852 ft | 279 kts | 307° |
| 2026-04-17 05:11 | -31.96128 | 116.56982 | 9716 ft | 277 kts | 307° |
| 2026-04-17 05:11 | -31.94940 | 116.55200 | 9566 ft | 277 kts | 307° |
| 2026-04-17 05:12 | -31.93888 | 116.53327 | 9226 ft | 278 kts | 300° |
| 2026-04-17 05:12 | -31.92902 | 116.51374 | 8857 ft | 275 kts | 301° |
| 2026-04-17 05:12 | -31.91928 | 116.49460 | 8636 ft | 266 kts | 301° |
| 2026-04-17 05:12 | -31.91003 | 116.47649 | 8421 ft | 251 kts | 301° |
| 2026-04-17 05:13 | -31.90130 | 116.45943 | 8233 ft | 235 kts | 301° |
| 2026-04-17 05:13 | -31.89312 | 116.44345 | 7939 ft | 224 kts | 301° |
| 2026-04-17 05:13 | -31.88511 | 116.42782 | 7473 ft | 223 kts | 301° |
| 2026-04-17 05:13 | -31.87712 | 116.41223 | 7030 ft | 222 kts | 301° |
| 2026-04-17 05:14 | -31.86919 | 116.39675 | 6569 ft | 220 kts | 301° |
| 2026-04-17 05:14 | -31.86132 | 116.38139 | 6194 ft | 216 kts | 302° |
| 2026-04-17 05:14 | -31.85354 | 116.36624 | 6025 ft | 219 kts | 302° |
| 2026-04-17 05:14 | -31.84574 | 116.35105 | 5761 ft | 219 kts | 302° |
| 2026-04-17 05:15 | -31.83792 | 116.33581 | 5466 ft | 216 kts | 302° |
| 2026-04-17 05:15 | -31.83029 | 116.32096 | 5244 ft | 207 kts | 301° |
| 2026-04-17 05:15 | -31.82291 | 116.30659 | 4913 ft | 204 kts | 301° |
| 2026-04-17 05:15 | -31.81567 | 116.29250 | 4613 ft | 200 kts | 302° |
| 2026-04-17 05:16 | -31.80828 | 116.27817 | 4336 ft | 208 kts | 301° |
| 2026-04-17 05:16 | -31.80114 | 116.26332 | 4074 ft | 208 kts | 292° |
| 2026-04-17 05:16 | -31.79861 | 116.24672 | 3789 ft | 207 kts | 269° |
| 2026-04-17 05:16 | -31.80201 | 116.23061 | 3513 ft | 202 kts | 245° |
| 2026-04-17 05:17 | -31.80930 | 116.21658 | 3267 ft | 200 kts | 240° |
| 2026-04-17 05:17 | -31.81652 | 116.20279 | 2998 ft | 201 kts | 240° |
| 2026-04-17 05:17 | -31.82366 | 116.18883 | 2840 ft | 194 kts | 240° |
| 2026-04-17 05:17 | -31.83046 | 116.17542 | 2723 ft | 192 kts | 240° |
| 2026-04-17 05:18 | -31.83735 | 116.16163 | 2604 ft | 194 kts | 240° |
| 2026-04-17 05:18 | -31.84405 | 116.14822 | 2528 ft | 189 kts | 240° |
| 2026-04-17 05:18 | -31.85069 | 116.13495 | 2509 ft | 188 kts | 240° |
| 2026-04-17 05:18 | -31.85709 | 116.12221 | 2507 ft | 172 kts | 240° |
| 2026-04-17 05:19 | -31.86289 | 116.11072 | 2491 ft | 154 kts | 240° |
| 2026-04-17 05:19 | -31.86846 | 116.09991 | 2505 ft | 153 kts | 240° |
| 2026-04-17 05:19 | -31.87387 | 116.08946 | 2484 ft | 149 kts | 240° |
| 2026-04-17 05:19 | -31.87924 | 116.07910 | 2379 ft | 148 kts | 240° |
| 2026-04-17 05:20 | -31.88450 | 116.06894 | 2147 ft | 141 kts | 240° |
| 2026-04-17 05:20 | -31.88946 | 116.05932 | 1916 ft | 137 kts | 240° |
| 2026-04-17 05:20 | -31.89440 | 116.04973 | 1685 ft | 136 kts | 240° |
| 2026-04-17 05:20 | -31.89930 | 116.04020 | 1425 ft | 136 kts | 240° |
| 2026-04-17 05:21 | -31.90418 | 116.03075 | 1194 ft | 132 kts | 240° |
| 2026-04-17 05:21 | -31.90882 | 116.02180 | 943 ft | 125 kts | 241° |
| 2026-04-17 05:21 | -31.91341 | 116.01307 | 720 ft | 129 kts | 242° |
| 2026-04-17 05:21 | -31.91806 | 116.00401 | 550 ft | 132 kts | 242° |
| 2026-04-17 05:22 | -31.92275 | 115.99488 | 386 ft | 128 kts | 243° |
| 2026-04-17 05:22 | -31.92736 | 115.98591 | 250 ft | 128 kts | 246° |
| 2026-04-17 05:22 | -31.93188 | 115.97686 | 88 ft | 126 kts | 243° |
| 2026-04-17 05:22 | -31.93596 | 115.96893 | 62 ft | 92 kts | 238° |
| 2026-04-17 05:23 | -31.93829 | 115.96453 | 59 ft | 34 kts | 239° |
| 2026-04-17 05:23 | -31.93916 | 115.96250 | 61 ft | 17 kts | 277° |
| 2026-04-17 05:23 | -31.93857 | 115.96216 | 63 ft | 11 kts | 346° |
| 2026-04-17 05:23 | -31.93784 | 115.96196 | 60 ft | 3 kts | 349° |
| 2026-04-17 05:24 | -31.93778 | 115.96195 | 59 ft | 0 kts | 350° |
| 2026-04-17 05:24 | -31.93746 | 115.96188 | 58 ft | 12 kts | 351° |
| 2026-04-17 05:24 | -31.93626 | 115.96184 | 57 ft | 18 kts | 10° |
| 2026-04-17 05:25 | -31.93556 | 115.96202 | 55 ft | 7 kts | 1° |
| 2026-04-17 05:25 | -31.93518 | 115.96160 | 54 ft | 8 kts | 299° |
| 2026-04-17 05:25 | -31.93512 | 115.96147 | 53 ft | 4 kts | 298° |
| 2026-04-17 05:25 | -31.93499 | 115.96118 | 52 ft | 0 kts | 298° |